sensor_id;sensor_type;location;lat;lon;timestamp;temperature;humidity
48488;DHT22;34289;48.572;13.378;2024-03-02T00:02:15;6.40;99.90
48488;DHT22;34289;48.572;13.378;2024-03-02T00:04:44;6.40;99.90
48488;DHT22;34289;48.572;13.378;2024-03-02T00:07:10;6.60;99.90
48488;DHT22;34289;48.572;13.378;2024-03-02T00:09:36;6.50;99.90
48488;DHT22;34289;48.572;13.378;2024-03-02T00:12:02;5.90;99.90
48488;DHT22;34289;48.572;13.378;2024-03-02T00:14:30;6.60;99.90
48488;DHT22;34289;48.572;13.378;2024-03-02T00:21:48;6.50;99.90
48488;DHT22;34289;48.572;13.378;2024-03-02T00:24:21;6.10;99.90
48488;DHT22;34289;48.572;13.378;2024-03-02T00:26:47;6.40;99.90
48488;DHT22;34289;48.572;13.378;2024-03-02T00:29:16;6.30;99.90
48488;DHT22;34289;48.572;13.378;2024-03-02T00:31:43;6.20;99.90
48488;DHT22;34289;48.572;13.378;2024-03-02T00:34:09;6.20;99.90
48488;DHT22;34289;48.572;13.378;2024-03-02T00:41:33;6.40;99.90
48488;DHT22;34289;48.572;13.378;2024-03-02T00:46:28;6.20;99.90
48488;DHT22;34289;48.572;13.378;2024-03-02T00:49:05;6.10;99.90
48488;DHT22;34289;48.572;13.378;2024-03-02T00:51:37;6.10;99.90
48488;DHT22;34289;48.572;13.378;2024-03-02T00:54:07;6.20;99.90
48488;DHT22;34289;48.572;13.378;2024-03-02T00:56:33;6.40;99.90
48488;DHT22;34289;48.572;13.378;2024-03-02T01:03:52;6.40;99.90
48488;DHT22;34289;48.572;13.378;2024-03-02T01:08:44;6.30;99.90
48488;DHT22;34289;48.572;13.378;2024-03-02T01:11:11;6.50;99.90
48488;DHT22;34289;48.572;13.378;2024-03-02T01:13:37;6.30;99.90
48488;DHT22;34289;48.572;13.378;2024-03-02T01:16:03;6.30;99.90
48488;DHT22;34289;48.572;13.378;2024-03-02T01:18:29;6.10;99.90
48488;DHT22;34289;48.572;13.378;2024-03-02T01:20:56;6.10;99.90
48488;DHT22;34289;48.572;13.378;2024-03-02T01:23:25;6.30;99.90
48488;DHT22;34289;48.572;13.378;2024-03-02T01:25:51;6.20;99.90
48488;DHT22;34289;48.572;13.378;2024-03-02T01:28:18;6.10;99.90
48488;DHT22;34289;48.572;13.378;2024-03-02T01:38:03;5.30;99.90
48488;DHT22;34289;48.572;13.378;2024-03-02T01:40:29;6.10;99.90
48488;DHT22;34289;48.572;13.378;2024-03-02T01:42:55;6.30;99.90
48488;DHT22;34289;48.572;13.378;2024-03-02T01:45:23;6.00;99.90
48488;DHT22;34289;48.572;13.378;2024-03-02T01:47:49;6.60;99.90
48488;DHT22;34289;48.572;13.378;2024-03-02T01:55:07;6.10;99.90
48488;DHT22;34289;48.572;13.378;2024-03-02T01:57:34;6.00;99.90
48488;DHT22;34289;48.572;13.378;2024-03-02T02:00:00;6.00;99.90
48488;DHT22;34289;48.572;13.378;2024-03-02T02:02:26;6.30;99.90
48488;DHT22;34289;48.572;13.378;2024-03-02T02:04:51;5.80;99.90
48488;DHT22;34289;48.572;13.378;2024-03-02T02:07:17;5.80;99.90
48488;DHT22;34289;48.572;13.378;2024-03-02T02:12:09;5.80;99.90
48488;DHT22;34289;48.572;13.378;2024-03-02T02:21:54;5.40;99.90
48488;DHT22;34289;48.572;13.378;2024-03-02T02:24:20;5.30;99.90
48488;DHT22;34289;48.572;13.378;2024-03-02T02:31:41;5.40;99.90
48488;DHT22;34289;48.572;13.378;2024-03-02T02:34:07;5.50;99.90
48488;DHT22;34289;48.572;13.378;2024-03-02T02:36:33;5.50;99.90
48488;DHT22;34289;48.572;13.378;2024-03-02T02:39:02;5.50;99.90
48488;DHT22;34289;48.572;13.378;2024-03-02T02:41:29;5.20;99.90
48488;DHT22;34289;48.572;13.378;2024-03-02T02:43:55;5.40;99.90
48488;DHT22;34289;48.572;13.378;2024-03-02T02:46:20;5.50;99.90
48488;DHT22;34289;48.572;13.378;2024-03-02T02:48:46;5.20;99.90
48488;DHT22;34289;48.572;13.378;2024-03-02T02:56:06;5.00;99.90
48488;DHT22;34289;48.572;13.378;2024-03-02T03:13:08;4.80;99.90
48488;DHT22;34289;48.572;13.378;2024-03-02T03:15:37;5.20;99.90
48488;DHT22;34289;48.572;13.378;2024-03-02T03:18:04;5.10;99.90
48488;DHT22;34289;48.572;13.378;2024-03-02T03:22:59;5.20;99.90
48488;DHT22;34289;48.572;13.378;2024-03-02T03:25:25;5.30;99.90
48488;DHT22;34289;48.572;13.378;2024-03-02T03:27:51;5.10;99.90
48488;DHT22;34289;48.572;13.378;2024-03-02T03:30:19;5.00;99.90
48488;DHT22;34289;48.572;13.378;2024-03-02T03:32:45;5.20;99.90
48488;DHT22;34289;48.572;13.378;2024-03-02T03:35:10;5.00;99.90
48488;DHT22;34289;48.572;13.378;2024-03-02T03:37:37;4.60;99.90
48488;DHT22;34289;48.572;13.378;2024-03-02T03:40:04;4.40;99.90
48488;DHT22;34289;48.572;13.378;2024-03-02T03:42:38;5.10;99.90
48488;DHT22;34289;48.572;13.378;2024-03-02T03:45:05;5.00;99.90
48488;DHT22;34289;48.572;13.378;2024-03-02T03:47:37;5.00;99.90
48488;DHT22;34289;48.572;13.378;2024-03-02T03:50:02;4.70;99.90
48488;DHT22;34289;48.572;13.378;2024-03-02T03:52:32;5.00;99.90
48488;DHT22;34289;48.572;13.378;2024-03-02T03:54:58;4.80;99.90
48488;DHT22;34289;48.572;13.378;2024-03-02T03:57:23;4.80;99.90
48488;DHT22;34289;48.572;13.378;2024-03-02T03:59:49;5.00;99.90
48488;DHT22;34289;48.572;13.378;2024-03-02T04:31:27;5.60;99.90
48488;DHT22;34289;48.572;13.378;2024-03-02T04:36:19;5.20;99.90
48488;DHT22;34289;48.572;13.378;2024-03-02T04:41:11;5.60;99.90
48488;DHT22;34289;48.572;13.378;2024-03-02T04:50:55;5.30;99.90
48488;DHT22;34289;48.572;13.378;2024-03-02T04:53:20;5.20;99.90
48488;DHT22;34289;48.572;13.378;2024-03-02T04:55:46;5.00;99.90
48488;DHT22;34289;48.572;13.378;2024-03-02T04:58:32;5.90;99.90
48488;DHT22;34289;48.572;13.378;2024-03-02T05:03:24;5.50;99.90
48488;DHT22;34289;48.572;13.378;2024-03-02T05:05:49;5.80;99.90
48488;DHT22;34289;48.572;13.378;2024-03-02T05:10:42;5.20;99.90
48488;DHT22;34289;48.572;13.378;2024-03-02T05:15:34;5.00;99.90
48488;DHT22;34289;48.572;13.378;2024-03-02T05:20:27;5.00;99.90
48488;DHT22;34289;48.572;13.378;2024-03-02T05:35:04;5.20;99.90
48488;DHT22;34289;48.572;13.378;2024-03-02T05:37:30;5.50;99.90
48488;DHT22;34289;48.572;13.378;2024-03-02T06:24:02;6.20;99.90
48488;DHT22;34289;48.572;13.378;2024-03-02T06:26:27;5.90;99.90
48488;DHT22;34289;48.572;13.378;2024-03-02T06:41:07;5.60;99.90
48488;DHT22;34289;48.572;13.378;2024-03-02T06:43:33;6.00;99.90
48488;DHT22;34289;48.572;13.378;2024-03-02T06:53:17;6.00;99.90
48488;DHT22;34289;48.572;13.378;2024-03-02T06:55:43;6.00;99.90
48488;DHT22;34289;48.572;13.378;2024-03-02T06:58:13;5.90;99.90
48488;DHT22;34289;48.572;13.378;2024-03-02T07:00:40;6.20;99.90
48488;DHT22;34289;48.572;13.378;2024-03-02T07:03:06;6.20;99.90
48488;DHT22;34289;48.572;13.378;2024-03-02T07:05:31;5.70;99.90
48488;DHT22;34289;48.572;13.378;2024-03-02T07:07:57;6.10;99.90
48488;DHT22;34289;48.572;13.378;2024-03-02T07:12:49;6.10;99.90
48488;DHT22;34289;48.572;13.378;2024-03-02T07:15:15;6.20;99.90
48488;DHT22;34289;48.572;13.378;2024-03-02T07:30:04;6.30;99.90
48488;DHT22;34289;48.572;13.378;2024-03-02T07:32:29;6.40;99.90
48488;DHT22;34289;48.572;13.378;2024-03-02T07:37:24;6.20;99.90
48488;DHT22;34289;48.572;13.378;2024-03-02T07:39:50;6.10;99.90
48488;DHT22;34289;48.572;13.378;2024-03-02T07:42:16;5.60;99.90
48488;DHT22;34289;48.572;13.378;2024-03-02T07:44:44;6.50;99.90
48488;DHT22;34289;48.572;13.378;2024-03-02T07:49:36;6.40;99.90
48488;DHT22;34289;48.572;13.378;2024-03-02T07:52:02;6.70;99.90
48488;DHT22;34289;48.572;13.378;2024-03-02T07:54:28;6.40;99.90
48488;DHT22;34289;48.572;13.378;2024-03-02T08:11:35;6.80;99.90
48488;DHT22;34289;48.572;13.378;2024-03-02T08:14:01;6.50;99.90
48488;DHT22;34289;48.572;13.378;2024-03-02T08:16:26;6.60;99.90
48488;DHT22;34289;48.572;13.378;2024-03-02T08:18:52;6.10;99.90
48488;DHT22;34289;48.572;13.378;2024-03-02T08:21:18;6.70;99.90
48488;DHT22;34289;48.572;13.378;2024-03-02T08:23:44;6.70;99.90
48488;DHT22;34289;48.572;13.378;2024-03-02T08:26:11;6.60;99.90
48488;DHT22;34289;48.572;13.378;2024-03-02T08:28:37;6.70;99.90
48488;DHT22;34289;48.572;13.378;2024-03-02T08:35:58;6.80;99.90
48488;DHT22;34289;48.572;13.378;2024-03-02T08:40:50;6.90;99.90
48488;DHT22;34289;48.572;13.378;2024-03-02T08:45:43;7.30;99.90
48488;DHT22;34289;48.572;13.378;2024-03-02T08:53:03;8.00;99.90
48488;DHT22;34289;48.572;13.378;2024-03-02T08:55:29;8.10;99.90
48488;DHT22;34289;48.572;13.378;2024-03-02T09:00:21;8.40;99.90
48488;DHT22;34289;48.572;13.378;2024-03-02T09:02:47;8.10;99.90
48488;DHT22;34289;48.572;13.378;2024-03-02T09:05:13;8.50;99.90
48488;DHT22;34289;48.572;13.378;2024-03-02T09:07:38;8.60;99.90
48488;DHT22;34289;48.572;13.378;2024-03-02T09:10:05;9.10;99.90
48488;DHT22;34289;48.572;13.378;2024-03-02T09:12:32;9.90;99.90
48488;DHT22;34289;48.572;13.378;2024-03-02T09:14:58;9.70;99.90
48488;DHT22;34289;48.572;13.378;2024-03-02T09:17:23;9.10;99.90
48488;DHT22;34289;48.572;13.378;2024-03-02T09:19:49;9.20;99.90
48488;DHT22;34289;48.572;13.378;2024-03-02T09:22:18;9.70;99.90
48488;DHT22;34289;48.572;13.378;2024-03-02T09:24:44;11.50;99.90
48488;DHT22;34289;48.572;13.378;2024-03-02T09:27:09;12.80;99.90
48488;DHT22;34289;48.572;13.378;2024-03-02T09:29:35;11.20;99.90
48488;DHT22;34289;48.572;13.378;2024-03-02T09:32:03;11.50;99.90
48488;DHT22;34289;48.572;13.378;2024-03-02T09:34:30;11.90;99.90
48488;DHT22;34289;48.572;13.378;2024-03-02T09:36:56;12.00;99.90
48488;DHT22;34289;48.572;13.378;2024-03-02T09:39:21;12.30;99.90
48488;DHT22;34289;48.572;13.378;2024-03-02T09:41:48;12.10;99.90
48488;DHT22;34289;48.572;13.378;2024-03-02T09:44:14;11.80;99.90
48488;DHT22;34289;48.572;13.378;2024-03-02T09:46:41;10.80;99.90
48488;DHT22;34289;48.572;13.378;2024-03-02T09:49:10;10.70;99.90
48488;DHT22;34289;48.572;13.378;2024-03-02T09:51:38;11.20;99.90
48488;DHT22;34289;48.572;13.378;2024-03-02T09:54:04;10.70;99.90
48488;DHT22;34289;48.572;13.378;2024-03-02T09:56:33;11.20;99.90
48488;DHT22;34289;48.572;13.378;2024-03-02T09:58:59;12.70;99.90
48488;DHT22;34289;48.572;13.378;2024-03-02T10:01:25;12.70;99.90
48488;DHT22;34289;48.572;13.378;2024-03-02T10:03:51;13.70;99.90
48488;DHT22;34289;48.572;13.378;2024-03-02T10:06:27;14.60;99.90
48488;DHT22;34289;48.572;13.378;2024-03-02T10:08:58;14.10;99.90
48488;DHT22;34289;48.572;13.378;2024-03-02T10:11:32;14.20;99.90
48488;DHT22;34289;48.572;13.378;2024-03-02T10:14:21;13.70;99.90
48488;DHT22;34289;48.572;13.378;2024-03-02T10:16:47;13.70;99.90
48488;DHT22;34289;48.572;13.378;2024-03-02T10:19:22;14.30;99.90
48488;DHT22;34289;48.572;13.378;2024-03-02T10:21:55;15.50;99.90
48488;DHT22;34289;48.572;13.378;2024-03-02T10:24:22;17.10;99.90
48488;DHT22;34289;48.572;13.378;2024-03-02T10:26:49;15.70;99.90
48488;DHT22;34289;48.572;13.378;2024-03-02T10:29:15;16.40;99.90
48488;DHT22;34289;48.572;13.378;2024-03-02T10:31:45;16.30;99.90
48488;DHT22;34289;48.572;13.378;2024-03-02T10:34:12;16.40;99.90
48488;DHT22;34289;48.572;13.378;2024-03-02T10:36:41;16.60;99.90
48488;DHT22;34289;48.572;13.378;2024-03-02T10:39:08;15.90;99.90
48488;DHT22;34289;48.572;13.378;2024-03-02T10:41:38;15.90;99.90
48488;DHT22;34289;48.572;13.378;2024-03-02T10:44:06;16.10;99.90
48488;DHT22;34289;48.572;13.378;2024-03-02T10:46:34;16.30;99.90
48488;DHT22;34289;48.572;13.378;2024-03-02T10:49:01;16.40;99.90
48488;DHT22;34289;48.572;13.378;2024-03-02T10:51:28;15.80;99.90
48488;DHT22;34289;48.572;13.378;2024-03-02T10:54:06;15.10;99.90
48488;DHT22;34289;48.572;13.378;2024-03-02T10:56:43;15.10;99.90
48488;DHT22;34289;48.572;13.378;2024-03-02T11:01:43;14.90;99.90
48488;DHT22;34289;48.572;13.378;2024-03-02T11:04:09;15.20;99.90
48488;DHT22;34289;48.572;13.378;2024-03-02T11:06:38;15.50;99.90
48488;DHT22;34289;48.572;13.378;2024-03-02T11:09:07;15.80;99.90
48488;DHT22;34289;48.572;13.378;2024-03-02T11:11:41;15.40;99.90
48488;DHT22;34289;48.572;13.378;2024-03-02T11:14:24;14.20;99.90
48488;DHT22;34289;48.572;13.378;2024-03-02T11:17:03;13.90;99.90
48488;DHT22;34289;48.572;13.378;2024-03-02T11:19:29;14.40;99.90
48488;DHT22;34289;48.572;13.378;2024-03-02T11:21:56;14.80;99.90
48488;DHT22;34289;48.572;13.378;2024-03-02T11:26:59;14.90;99.90
48488;DHT22;34289;48.572;13.378;2024-03-02T11:32:05;16.50;99.90
48488;DHT22;34289;48.572;13.378;2024-03-02T11:34:34;13.80;99.90
48488;DHT22;34289;48.572;13.378;2024-03-02T11:37:04;14.00;99.90
48488;DHT22;34289;48.572;13.378;2024-03-02T11:39:31;14.50;99.90
48488;DHT22;34289;48.572;13.378;2024-03-02T11:41:58;14.60;99.90
48488;DHT22;34289;48.572;13.378;2024-03-02T11:44:27;15.60;99.90
48488;DHT22;34289;48.572;13.378;2024-03-02T11:47:06;15.30;99.90
48488;DHT22;34289;48.572;13.378;2024-03-02T11:49:51;15.50;99.90
48488;DHT22;34289;48.572;13.378;2024-03-02T11:52:18;15.60;99.90
48488;DHT22;34289;48.572;13.378;2024-03-02T11:54:45;15.40;99.90
48488;DHT22;34289;48.572;13.378;2024-03-02T11:57:18;15.50;99.90
48488;DHT22;34289;48.572;13.378;2024-03-02T11:59:55;15.80;99.90
48488;DHT22;34289;48.572;13.378;2024-03-02T12:02:24;15.10;99.90
48488;DHT22;34289;48.572;13.378;2024-03-02T12:04:50;14.40;99.90
48488;DHT22;34289;48.572;13.378;2024-03-02T12:07:23;14.40;99.90
48488;DHT22;34289;48.572;13.378;2024-03-02T12:10:01;14.40;99.90
48488;DHT22;34289;48.572;13.378;2024-03-02T12:12:28;14.20;99.90
48488;DHT22;34289;48.572;13.378;2024-03-02T12:14:54;13.90;99.90
48488;DHT22;34289;48.572;13.378;2024-03-02T12:17:21;14.00;99.90
48488;DHT22;34289;48.572;13.378;2024-03-02T12:19:54;13.30;99.90
48488;DHT22;34289;48.572;13.378;2024-03-02T12:22:21;13.20;99.90
48488;DHT22;34289;48.572;13.378;2024-03-02T12:24:47;13.00;99.90
48488;DHT22;34289;48.572;13.378;2024-03-02T12:27:15;13.50;99.90
48488;DHT22;34289;48.572;13.378;2024-03-02T12:29:44;14.00;99.90
48488;DHT22;34289;48.572;13.378;2024-03-02T12:32:10;14.20;99.90
48488;DHT22;34289;48.572;13.378;2024-03-02T12:34:38;14.10;99.90
48488;DHT22;34289;48.572;13.378;2024-03-02T12:37:05;14.50;99.90
48488;DHT22;34289;48.572;13.378;2024-03-02T12:39:31;14.40;99.90
48488;DHT22;34289;48.572;13.378;2024-03-02T12:41:58;13.90;99.90
48488;DHT22;34289;48.572;13.378;2024-03-02T12:44:24;13.40;99.90
48488;DHT22;34289;48.572;13.378;2024-03-02T12:46:49;13.50;99.90
48488;DHT22;34289;48.572;13.378;2024-03-02T12:49:15;14.30;99.90
48488;DHT22;34289;48.572;13.378;2024-03-02T12:51:46;13.80;99.90
48488;DHT22;34289;48.572;13.378;2024-03-02T12:54:17;14.10;99.90
48488;DHT22;34289;48.572;13.378;2024-03-02T12:56:43;14.20;99.90
48488;DHT22;34289;48.572;13.378;2024-03-02T12:59:19;14.20;99.90
48488;DHT22;34289;48.572;13.378;2024-03-02T13:01:54;14.50;99.90
48488;DHT22;34289;48.572;13.378;2024-03-02T13:04:27;14.90;99.90
48488;DHT22;34289;48.572;13.378;2024-03-02T13:06:55;14.80;99.90
48488;DHT22;34289;48.572;13.378;2024-03-02T13:09:23;14.50;99.90
48488;DHT22;34289;48.572;13.378;2024-03-02T13:11:49;14.70;99.90
48488;DHT22;34289;48.572;13.378;2024-03-02T13:14:15;14.70;99.90
48488;DHT22;34289;48.572;13.378;2024-03-02T13:16:44;15.00;99.90
48488;DHT22;34289;48.572;13.378;2024-03-02T13:19:13;15.10;99.90
48488;DHT22;34289;48.572;13.378;2024-03-02T13:21:39;14.70;99.90
48488;DHT22;34289;48.572;13.378;2024-03-02T13:24:05;14.80;99.90
48488;DHT22;34289;48.572;13.378;2024-03-02T13:26:31;15.10;99.90
48488;DHT22;34289;48.572;13.378;2024-03-02T13:28:57;14.90;99.90
48488;DHT22;34289;48.572;13.378;2024-03-02T13:31:23;14.90;99.90
48488;DHT22;34289;48.572;13.378;2024-03-02T13:33:49;15.30;99.90
48488;DHT22;34289;48.572;13.378;2024-03-02T13:36:15;14.80;99.90
48488;DHT22;34289;48.572;13.378;2024-03-02T13:38:42;14.60;99.90
48488;DHT22;34289;48.572;13.378;2024-03-02T13:41:10;14.50;99.90
48488;DHT22;34289;48.572;13.378;2024-03-02T13:43:37;14.60;99.90
48488;DHT22;34289;48.572;13.378;2024-03-02T13:46:04;14.80;99.90
48488;DHT22;34289;48.572;13.378;2024-03-02T13:48:29;14.60;99.90
48488;DHT22;34289;48.572;13.378;2024-03-02T13:50:57;14.50;99.90
48488;DHT22;34289;48.572;13.378;2024-03-02T13:53:23;14.70;99.90
48488;DHT22;34289;48.572;13.378;2024-03-02T13:55:49;14.90;99.90
48488;DHT22;34289;48.572;13.378;2024-03-02T13:58:15;15.10;99.90
48488;DHT22;34289;48.572;13.378;2024-03-02T14:00:40;15.30;99.90
48488;DHT22;34289;48.572;13.378;2024-03-02T14:03:06;15.40;99.90
48488;DHT22;34289;48.572;13.378;2024-03-02T14:05:33;15.50;99.90
48488;DHT22;34289;48.572;13.378;2024-03-02T14:07:58;15.20;99.90
48488;DHT22;34289;48.572;13.378;2024-03-02T14:10:26;15.00;99.90
48488;DHT22;34289;48.572;13.378;2024-03-02T14:12:52;15.10;99.90
48488;DHT22;34289;48.572;13.378;2024-03-02T14:15:18;14.90;99.90
48488;DHT22;34289;48.572;13.378;2024-03-02T14:17:43;14.80;99.90
48488;DHT22;34289;48.572;13.378;2024-03-02T14:20:09;14.70;99.90
48488;DHT22;34289;48.572;13.378;2024-03-02T14:22:37;14.70;99.90
48488;DHT22;34289;48.572;13.378;2024-03-02T14:25:03;14.60;99.90
48488;DHT22;34289;48.572;13.378;2024-03-02T14:27:29;14.70;99.90
48488;DHT22;34289;48.572;13.378;2024-03-02T14:29:55;14.50;99.90
48488;DHT22;34289;48.572;13.378;2024-03-02T14:32:20;14.30;99.90
48488;DHT22;34289;48.572;13.378;2024-03-02T14:34:46;14.40;99.90
48488;DHT22;34289;48.572;13.378;2024-03-02T14:37:13;14.50;99.90
48488;DHT22;34289;48.572;13.378;2024-03-02T14:39:39;14.60;99.90
48488;DHT22;34289;48.572;13.378;2024-03-02T14:42:06;14.50;99.90
48488;DHT22;34289;48.572;13.378;2024-03-02T14:44:32;14.40;99.90
48488;DHT22;34289;48.572;13.378;2024-03-02T14:46:57;14.10;99.90
48488;DHT22;34289;48.572;13.378;2024-03-02T14:49:26;14.20;99.90
48488;DHT22;34289;48.572;13.378;2024-03-02T14:51:52;14.30;99.90
48488;DHT22;34289;48.572;13.378;2024-03-02T14:54:17;14.40;99.90
48488;DHT22;34289;48.572;13.378;2024-03-02T14:56:43;14.10;99.90
48488;DHT22;34289;48.572;13.378;2024-03-02T14:59:09;14.00;99.90
48488;DHT22;34289;48.572;13.378;2024-03-02T15:01:36;14.00;99.90
48488;DHT22;34289;48.572;13.378;2024-03-02T15:04:01;13.90;99.90
48488;DHT22;34289;48.572;13.378;2024-03-02T15:06:27;13.90;99.90
48488;DHT22;34289;48.572;13.378;2024-03-02T15:08:53;13.80;99.90
48488;DHT22;34289;48.572;13.378;2024-03-02T15:11:20;13.70;99.90
48488;DHT22;34289;48.572;13.378;2024-03-02T15:13:47;13.70;99.90
48488;DHT22;34289;48.572;13.378;2024-03-02T15:16:13;13.70;99.90
48488;DHT22;34289;48.572;13.378;2024-03-02T15:21:04;13.70;99.90
48488;DHT22;34289;48.572;13.378;2024-03-02T15:23:30;13.30;99.90
48488;DHT22;34289;48.572;13.378;2024-03-02T15:25:56;13.10;99.90
48488;DHT22;34289;48.572;13.378;2024-03-02T15:28:22;13.20;99.90
48488;DHT22;34289;48.572;13.378;2024-03-02T15:30:47;13.10;99.90
48488;DHT22;34289;48.572;13.378;2024-03-02T15:35:39;13.30;99.90
48488;DHT22;34289;48.572;13.378;2024-03-02T15:38:05;13.50;99.90
48488;DHT22;34289;48.572;13.378;2024-03-02T15:40:30;13.30;99.90
48488;DHT22;34289;48.572;13.378;2024-03-02T15:42:56;13.30;99.90
48488;DHT22;34289;48.572;13.378;2024-03-02T15:45:21;13.30;99.90
48488;DHT22;34289;48.572;13.378;2024-03-02T15:47:47;13.20;99.90
48488;DHT22;34289;48.572;13.378;2024-03-02T15:50:12;13.20;99.90
48488;DHT22;34289;48.572;13.378;2024-03-02T15:52:40;13.30;99.90
48488;DHT22;34289;48.572;13.378;2024-03-02T15:55:06;13.20;99.90
48488;DHT22;34289;48.572;13.378;2024-03-02T15:57:32;13.20;99.90
48488;DHT22;34289;48.572;13.378;2024-03-02T15:59:58;13.20;99.90
48488;DHT22;34289;48.572;13.378;2024-03-02T16:02:24;13.30;99.90
48488;DHT22;34289;48.572;13.378;2024-03-02T16:04:50;13.10;99.90
48488;DHT22;34289;48.572;13.378;2024-03-02T16:07:16;12.90;99.90
48488;DHT22;34289;48.572;13.378;2024-03-02T16:09:42;12.90;99.90
48488;DHT22;34289;48.572;13.378;2024-03-02T16:12:08;12.80;99.90
48488;DHT22;34289;48.572;13.378;2024-03-02T16:14:33;12.50;99.90
48488;DHT22;34289;48.572;13.378;2024-03-02T16:17:00;12.60;99.90
48488;DHT22;34289;48.572;13.378;2024-03-02T16:19:25;12.50;99.90
48488;DHT22;34289;48.572;13.378;2024-03-02T16:21:51;12.30;99.90
48488;DHT22;34289;48.572;13.378;2024-03-02T16:24:17;12.20;99.90
48488;DHT22;34289;48.572;13.378;2024-03-02T16:26:42;12.40;99.90
48488;DHT22;34289;48.572;13.378;2024-03-02T16:29:09;12.40;99.90
48488;DHT22;34289;48.572;13.378;2024-03-02T16:31:37;12.40;99.90
48488;DHT22;34289;48.572;13.378;2024-03-02T16:34:02;12.20;99.90
48488;DHT22;34289;48.572;13.378;2024-03-02T16:36:28;12.00;99.90
48488;DHT22;34289;48.572;13.378;2024-03-02T16:38:58;11.90;99.90
48488;DHT22;34289;48.572;13.378;2024-03-02T16:41:24;11.70;99.90
48488;DHT22;34289;48.572;13.378;2024-03-02T16:43:55;11.70;99.90
48488;DHT22;34289;48.572;13.378;2024-03-02T16:46:20;11.70;99.90
48488;DHT22;34289;48.572;13.378;2024-03-02T16:48:46;11.50;99.90
48488;DHT22;34289;48.572;13.378;2024-03-02T16:51:11;11.50;99.90
48488;DHT22;34289;48.572;13.378;2024-03-02T16:53:40;11.40;99.90
48488;DHT22;34289;48.572;13.378;2024-03-02T16:56:06;11.20;99.90
48488;DHT22;34289;48.572;13.378;2024-03-02T16:58:32;10.70;99.90
48488;DHT22;34289;48.572;13.378;2024-03-02T17:00:57;10.80;99.90
48488;DHT22;34289;48.572;13.378;2024-03-02T17:03:23;10.90;99.90
48488;DHT22;34289;48.572;13.378;2024-03-02T17:05:50;10.60;99.90
48488;DHT22;34289;48.572;13.378;2024-03-02T17:08:16;10.40;99.90
48488;DHT22;34289;48.572;13.378;2024-03-02T17:10:42;10.00;99.90
48488;DHT22;34289;48.572;13.378;2024-03-02T17:13:11;10.10;99.90
48488;DHT22;34289;48.572;13.378;2024-03-02T17:15:38;10.00;99.90
48488;DHT22;34289;48.572;13.378;2024-03-02T17:18:05;10.00;99.90
48488;DHT22;34289;48.572;13.378;2024-03-02T17:20:31;9.70;99.90
48488;DHT22;34289;48.572;13.378;2024-03-02T17:25:24;9.60;99.90
48488;DHT22;34289;48.572;13.378;2024-03-02T17:27:50;9.00;99.90
48488;DHT22;34289;48.572;13.378;2024-03-02T17:30:16;9.40;99.90
48488;DHT22;34289;48.572;13.378;2024-03-02T17:35:12;8.90;99.90
48488;DHT22;34289;48.572;13.378;2024-03-02T17:40:06;8.80;99.90
48488;DHT22;34289;48.572;13.378;2024-03-02T17:52:18;8.30;99.90
48488;DHT22;34289;48.572;13.378;2024-03-02T17:54:44;8.40;99.90
48488;DHT22;34289;48.572;13.378;2024-03-02T17:57:11;8.50;99.90
48488;DHT22;34289;48.572;13.378;2024-03-02T18:04:29;8.50;99.90
48488;DHT22;34289;48.572;13.378;2024-03-02T18:09:24;8.20;99.90
48488;DHT22;34289;48.572;13.378;2024-03-02T18:11:50;7.40;99.90
48488;DHT22;34289;48.572;13.378;2024-03-02T18:14:17;7.80;99.90
48488;DHT22;34289;48.572;13.378;2024-03-02T18:19:10;7.50;99.90
48488;DHT22;34289;48.572;13.378;2024-03-02T18:24:02;7.70;99.90
48488;DHT22;34289;48.572;13.378;2024-03-02T18:26:28;7.50;99.90
48488;DHT22;34289;48.572;13.378;2024-03-02T18:28:54;7.10;99.90
48488;DHT22;34289;48.572;13.378;2024-03-02T18:31:20;7.30;99.90
48488;DHT22;34289;48.572;13.378;2024-03-02T18:33:48;7.30;99.90
48488;DHT22;34289;48.572;13.378;2024-03-02T18:36:13;7.00;99.90
48488;DHT22;34289;48.572;13.378;2024-03-02T19:24:58;6.30;99.90
48488;DHT22;34289;48.572;13.378;2024-03-02T19:34:43;5.70;99.90
48488;DHT22;34289;48.572;13.378;2024-03-02T19:37:09;5.60;99.90
48488;DHT22;34289;48.572;13.378;2024-03-02T19:39:34;5.50;99.90
48488;DHT22;34289;48.572;13.378;2024-03-02T19:44:31;5.30;99.90
48488;DHT22;34289;48.572;13.378;2024-03-02T19:56:42;5.30;99.90
48488;DHT22;34289;48.572;13.378;2024-03-02T20:04:05;4.50;99.90
48488;DHT22;34289;48.572;13.378;2024-03-02T20:06:30;4.60;99.90
48488;DHT22;34289;48.572;13.378;2024-03-02T20:18:42;4.60;99.90
48488;DHT22;34289;48.572;13.378;2024-03-02T20:40:36;4.10;99.90
48488;DHT22;34289;48.572;13.378;2024-03-02T20:43:02;4.70;99.90
48488;DHT22;34289;48.572;13.378;2024-03-02T21:00:05;3.50;99.90
48488;DHT22;34289;48.572;13.378;2024-03-02T21:02:33;3.50;99.90
48488;DHT22;34289;48.572;13.378;2024-03-02T21:05:00;3.60;99.90
48488;DHT22;34289;48.572;13.378;2024-03-02T21:07:26;3.80;99.90
48488;DHT22;34289;48.572;13.378;2024-03-02T21:09:51;3.90;99.90
48488;DHT22;34289;48.572;13.378;2024-03-02T21:22:03;3.70;99.90
48488;DHT22;34289;48.572;13.378;2024-03-02T21:24:33;3.60;99.90
48488;DHT22;34289;48.572;13.378;2024-03-02T21:27:01;3.70;99.90
48488;DHT22;34289;48.572;13.378;2024-03-02T21:29:26;3.90;99.90
48488;DHT22;34289;48.572;13.378;2024-03-02T21:31:53;4.10;99.90
48488;DHT22;34289;48.572;13.378;2024-03-02T21:34:20;2.60;99.90
48488;DHT22;34289;48.572;13.378;2024-03-02T21:36:46;3.20;99.90
48488;DHT22;34289;48.572;13.378;2024-03-02T21:46:30;3.10;99.90
48488;DHT22;34289;48.572;13.378;2024-03-02T21:51:25;3.20;99.90
48488;DHT22;34289;48.572;13.378;2024-03-02T21:58:44;2.80;99.90
48488;DHT22;34289;48.572;13.378;2024-03-02T22:01:11;2.80;99.90
48488;DHT22;34289;48.572;13.378;2024-03-02T22:06:03;3.00;99.90
48488;DHT22;34289;48.572;13.378;2024-03-02T22:08:30;3.30;99.90
48488;DHT22;34289;48.572;13.378;2024-03-02T22:10:56;2.60;99.90
48488;DHT22;34289;48.572;13.378;2024-03-02T22:15:48;2.30;99.90
48488;DHT22;34289;48.572;13.378;2024-03-02T22:30:26;2.90;99.90
48488;DHT22;34289;48.572;13.378;2024-03-02T22:35:26;2.70;99.90
48488;DHT22;34289;48.572;13.378;2024-03-02T22:37:52;2.90;99.90
48488;DHT22;34289;48.572;13.378;2024-03-02T22:40:24;2.90;99.90
48488;DHT22;34289;48.572;13.378;2024-03-02T22:42:55;2.50;99.90
48488;DHT22;34289;48.572;13.378;2024-03-02T22:45:25;2.80;99.90
48488;DHT22;34289;48.572;13.378;2024-03-02T22:47:50;2.80;99.90
48488;DHT22;34289;48.572;13.378;2024-03-02T23:00:02;2.50;99.90